Aérodrome :
LOGIN :

S'inscrire | Disclaimer

   EN    FR    IT 

 










Légende :    VFR   VFR Marginal   IFR   IFR Intensif   IFR Très Intensif
Visi : 
Plafond : 
>= 8 km
>= 3000ft
5 à 8 km
1000 à 3000 ft
1500m à 5 km
500 à 1000 ft
800 à 1500m
200 à 500 ft
< 800m
< 200 ft
Symboles :   Orages  Brouillard  Fortes neiges  Fortes précipitations  Vent > 20 kt
SIGMETs :   Divers  Orages  Givrage  Turbulence  Onde Orograph.  Cendres Volcan.






- Altitude de l'aérodrome : 286 ft
- Code IATA : FFD


EGVA - RAF Fairford

DERNIER METAR :
  • 082018Z AUTO 23016G27KT 9999 -RA SCT024 BKN029 06/04 A2936 RMK AO2 RAB08 SLP947

METARs EXPIRÉS :
  • 082008Z AUTO 22016KT 9999 -RA FEW023 SCT030 05/04 A2936 RMK AO2 RAB08 SLP947
  • 082001Z AUTO 22016G25KT 9999 SCT021 SCT028 05/04 A2936 RMK AO2 SLP947
  • 081953Z AUTO 22018G25KT 9999 BKN023 BKN029 05/04 A2936 RMK AO2 RAB41E53 SLP947
  • 081941Z AUTO 22014KT 9999 -RA BKN023 OVC029 06/04 A2937 RMK AO2 RAB41 SLP951
  • 081901Z AUTO 24013KT 9999 BKN025 BKN035 BKN044 06/04 A2939 RMK AO2 CIG 025V035 SLP957
  • 081855Z AUTO 23015KT 9999 SCT026 BKN035 06/04 A2939 RMK AO2 RAE18RAB40E55 SLP957
  • 081833Z AUTO 23010KT 9999 SCT027 SCT034 06/04 A2940 RMK AO2 RAE18 SLP960
  • 081818Z AUTO 24013KT 9999 BKN026 OVC034 06/04 A2941 RMK AO2 RAE18 SLP964
  • 081756Z AUTO 24013KT 9999 -RA BKN028 BKN033 05/04 A2942 RMK AO2 PK WND 24027/00 RAB52 CIG 028V036 BKN028 V SCT SLP968 P0000 60003 T00540037 10091 20054 57009
  • 081752Z AUTO 24010KT 9999 -RA BKN028 BKN035 05/04 A2942 RMK AO2 RAB52 CIG 028V036 BKN028 V SCT SLP968

Prévision TAF périmée.



MET'MAP, la Météo Aéronautique d'un coup d'oeil ! - Copyright ORBIFLY Décembre 2007 - Disclaimer

ORBIFLY MET'MAP TEAM :

Programmation & Développement : Alexandra Zaïnal
Sur une idée originale de : Baudouin d'Aumeries
Assistance à la programmation : Marc-Olivier Méhu
Soutien technique & logistique : Manuel Goepfert

Contact : metmap@orbifly.com




SOURCES & CREDITS :

   NOAA